Aviation Digital Data Service (ADDS)

Output produced by METARs form (0702 UTC 22 December 2014)
found at http://aviationweather.gov/adds/metars/
 
KPBG 220520Z 2206/2306 00000KT 5SM BR OVC008 
     FM221400 15006KT P6SM OVC015 
     FM230400 14006KT P6SM VCSH BKN015 OVC020